aviador You're here:

BIAR Decoded Metar

AKUREYRI in ICELAND
Report Time2018-01-19 05:00:00
UTC Time2018-01-19 05:33:07
Flight Rules vfr VFR
WindCalm
Visibility9999 m
Phenomena:N/A
Clouds:Overcast 044 Hf
Expected CloudBase > 400 ft AGL from Temp-Dew spread
Ceiling4,400 ft
Temp-5°C (ISA -20)
Dew Point-6°C (93% RH)
AAT-7.7°C
QNH0997 hPa
Density Alt-1,857 ft
Elevation7 ft
Report Wrong Elevation
Raw Report
METAR BIAR 190500Z 00000KT 9999 OVC044 M05/M06 Q0997=

Extra information for BIAR:More info

Metar Taf Metar & Taf Last 4 Metars F.Rules Stats Wind Profile Meteogram Temp Stats Airport Information Weather charts Add Link Nearby VenuesMetar ALERT Operation Metar Decoded Social comments